createdAt,value
2019-05-15T00:03:49.227Z,4.1
2019-05-15T00:08:48.064Z,4
2019-05-15T00:13:48.392Z,3.9
2019-05-15T00:18:48.668Z,3.8
2019-05-15T00:23:50.342Z,3.7
2019-05-15T00:28:50.318Z,3.7
2019-05-15T00:33:50.952Z,3.6
2019-05-15T00:38:50.392Z,3.5
2019-05-15T00:43:50.513Z,3.4
2019-05-15T00:48:52.800Z,3.3
2019-05-15T00:53:53.144Z,3.3
2019-05-15T00:58:53.158Z,3.2
2019-05-15T01:03:53.282Z,3.1
2019-05-15T01:08:53.536Z,3
2019-05-15T01:13:58.620Z,2.9
2019-05-15T01:18:58.751Z,2.9
2019-05-15T01:23:59.024Z,2.8
2019-05-15T01:28:58.544Z,2.7
2019-05-15T01:33:59.324Z,2.7
2019-05-15T01:39:02.240Z,2.6
2019-05-15T01:44:02.505Z,2.5
2019-05-15T01:49:02.480Z,2.5
2019-05-15T01:54:02.536Z,2.4
2019-05-15T01:59:02.475Z,2.3
2019-05-15T02:04:02.484Z,2.3
2019-05-15T02:09:02.512Z,2.2
2019-05-15T02:14:02.488Z,2.2
2019-05-15T02:19:02.500Z,2.1
2019-05-15T02:24:02.746Z,2.1
2019-05-15T02:29:02.724Z,2
2019-05-15T02:34:02.917Z,2
2019-05-15T02:39:03.010Z,1.9
2019-05-15T02:44:03.026Z,1.8
2019-05-15T02:49:03.009Z,1.8
2019-05-15T02:54:03.036Z,1.7
2019-05-15T02:59:08.989Z,1.7
2019-05-15T03:04:09.030Z,1.6
2019-05-15T03:09:09.124Z,1.6
2019-05-15T03:14:09.055Z,1.5
2019-05-15T03:19:06.005Z,1.4
2019-05-15T03:24:06.002Z,1.4
2019-05-15T03:29:09.697Z,1.3
2019-05-15T03:34:18.892Z,1.3
2019-05-15T03:39:09.603Z,1.2
2019-05-15T03:44:09.408Z,1.2
2019-05-15T03:49:13.492Z,1.1
2019-05-15T03:54:14.911Z,1.1
2019-05-15T03:59:14.820Z,1.1
2019-05-15T04:04:38.788Z,1.1
2019-05-15T04:10:02.273Z,1
2019-05-15T04:15:04.552Z,1
2019-05-15T04:20:04.505Z,1
2019-05-15T04:25:04.534Z,1
2019-05-15T04:30:04.529Z,1
2019-05-15T04:35:04.498Z,1
2019-05-15T04:40:04.494Z,1.1
2019-05-15T04:45:05.201Z,1.1
2019-05-15T04:50:11.046Z,1.1
2019-05-15T04:55:22.771Z,1.2
2019-05-15T05:00:22.717Z,1.2
2019-05-15T05:05:22.739Z,1.2
2019-05-15T05:10:24.333Z,1.3
2019-05-15T05:15:25.771Z,1.4
2019-05-15T05:20:33.429Z,1.5
2019-05-15T05:25:34.376Z,1.6
2019-05-15T05:37:35.004Z,2.2
2019-05-15T05:42:07.769Z,2.4
2019-05-15T05:47:05.698Z,2.5
2019-05-15T05:52:08.240Z,2.8
2019-05-15T05:57:08.920Z,3
2019-05-15T06:02:08.087Z,3.4
2019-05-15T06:07:13.210Z,3.7
2019-05-15T06:12:07.904Z,4.3
2019-05-15T06:17:08.935Z,4.6
2019-05-15T06:22:08.729Z,4.7
2019-05-15T06:27:32.991Z,4.8
2019-05-15T06:32:34.977Z,5.1
2019-05-15T06:37:34.959Z,5.3
2019-05-15T06:42:34.935Z,5.5
2019-05-15T06:47:34.901Z,5.8
2019-05-15T06:52:34.938Z,5.9
2019-05-15T06:57:34.915Z,6
2019-05-15T07:02:34.902Z,6.2
2019-05-15T07:07:34.878Z,6.4
2019-05-15T07:12:34.980Z,6.5
2019-05-15T07:17:34.914Z,6.9
2019-05-15T07:22:34.911Z,7.1
2019-05-15T07:27:34.901Z,7.2
2019-05-15T07:32:34.913Z,7.4
2019-05-15T07:37:34.975Z,7.6
2019-05-15T07:42:35.207Z,7.9
2019-05-15T07:47:35.165Z,8
2019-05-15T07:52:35.156Z,8.1
2019-05-15T07:57:35.175Z,8.4
2019-05-15T08:02:35.180Z,8.5
2019-05-15T08:07:35.452Z,8.9
2019-05-15T08:12:35.489Z,9.1
2019-05-15T08:17:54.620Z,9.3
2019-05-15T08:22:38.237Z,9.7
2019-05-15T08:27:38.208Z,10.3
2019-05-15T08:32:40.160Z,10.9
2019-05-15T08:37:40.128Z,11.1
2019-05-15T08:42:41.912Z,11.3
2019-05-15T08:47:40.396Z,11.6
2019-05-15T08:52:41.208Z,11.5
2019-05-15T08:57:44.777Z,11.6
2019-05-15T09:02:44.696Z,11.6
2019-05-15T09:07:45.279Z,11.9
2019-05-15T09:12:44.759Z,12
2019-05-15T09:17:45.007Z,12.3
2019-05-15T09:22:45.301Z,12.6
2019-05-15T09:27:45.950Z,12.9
2019-05-15T09:32:48.135Z,13.1
2019-05-15T09:37:48.795Z,13.3
2019-05-15T09:42:48.664Z,13.4
2019-05-15T09:47:48.709Z,13.7
2019-05-15T09:52:50.046Z,13.7
2019-05-15T09:58:20.073Z,13.8
2019-05-15T10:10:48.532Z,14.6
2019-05-15T10:17:33.539Z,14.7
2019-05-15T10:22:58.987Z,15
2019-05-15T10:28:44.781Z,15.3
2019-05-15T10:34:01.026Z,15.4
2019-05-15T10:40:39.415Z,15.8
2019-05-15T10:52:05.297Z,16.3
2019-05-15T10:57:00.768Z,16.9
2019-05-15T11:02:33.873Z,17.2
2019-05-15T11:07:58.843Z,17.5
2019-05-15T11:12:58.095Z,17.2
2019-05-15T11:17:58.585Z,17.5
2019-05-15T11:22:59.167Z,17.7
2019-05-15T11:27:59.119Z,17.8
2019-05-15T11:33:09.440Z,17.5
2019-05-15T11:38:09.547Z,17.9
2019-05-15T11:43:08.663Z,18.1
2019-05-15T11:48:08.813Z,18.5
2019-05-15T11:53:08.671Z,18.7
2019-05-15T11:58:09.251Z,18.8
2019-05-15T12:03:13.621Z,19.1
2019-05-15T12:08:14.795Z,19.2
2019-05-15T12:13:15.088Z,19.3
2019-05-15T12:18:14.976Z,19.3
2019-05-15T12:23:15.262Z,19
2019-05-15T12:28:15.477Z,19.2
2019-05-15T12:33:18.147Z,19.1
2019-05-15T12:38:18.531Z,18.9
2019-05-15T13:03:20.642Z,19.7
2019-05-15T13:08:21.932Z,19.8
2019-05-15T13:13:21.984Z,19.8
2019-05-15T13:18:28.520Z,19.4
2019-05-15T13:23:28.373Z,19.2
2019-05-15T13:28:28.764Z,19.4
2019-05-15T13:33:26.901Z,19.8
2019-05-15T13:38:28.565Z,19.9
2019-05-15T13:43:28.767Z,20.2
2019-05-15T13:48:29.229Z,20.3
2019-05-15T13:53:28.855Z,20.3
2019-05-15T13:58:28.891Z,20
2019-05-15T14:03:28.891Z,20.4
2019-05-15T14:08:31.813Z,20.6
2019-05-15T14:13:32.736Z,20.4
2019-05-15T14:18:34.843Z,20.4
2019-05-15T14:23:38.336Z,20.8
2019-05-15T14:28:38.883Z,20.6
2019-05-15T14:33:38.104Z,20.7
2019-05-15T14:38:39.087Z,20.9
2019-05-15T14:43:39.112Z,20.2
2019-05-15T14:48:39.325Z,20.2
2019-05-15T14:53:39.656Z,20.1
2019-05-15T14:58:39.846Z,19.9
2019-05-15T15:03:40.915Z,20.1
2019-05-15T15:08:40.416Z,20.3
2019-05-15T15:13:43.467Z,20.5
2019-05-15T15:18:48.247Z,20.2
2019-05-15T15:23:48.092Z,19.5
2019-05-15T15:28:48.816Z,19.8
2019-05-15T15:33:49.525Z,20
2019-05-15T15:38:50.745Z,20.1
2019-05-15T15:43:53.399Z,20
2019-05-15T15:48:59.202Z,19.5
2019-05-15T15:53:57.792Z,19.4
2019-05-15T15:58:59.891Z,19.3
2019-05-15T16:04:00.822Z,19.2
2019-05-15T16:09:01.932Z,19.5
2019-05-15T16:14:01.500Z,19.4
2019-05-15T16:19:02.710Z,19.4
2019-05-15T16:24:17.902Z,19.2
2019-05-15T16:34:08.266Z,18.4
2019-05-15T16:39:25.717Z,18.5
2019-05-15T16:52:18.141Z,18.3
2019-05-15T16:57:28.736Z,18.2
2019-05-15T17:02:32.193Z,17.8
2019-05-15T17:08:01.428Z,18
2019-05-15T17:13:19.051Z,18.1
2019-05-15T17:18:19.478Z,17.9
2019-05-15T17:23:52.417Z,17.8
2019-05-15T17:29:13.493Z,17.8
2019-05-15T17:34:22.832Z,17.9
2019-05-15T17:39:36.566Z,17.9
2019-05-15T17:44:32.840Z,17.7
2019-05-15T17:49:32.880Z,17.6
2019-05-15T17:54:33.170Z,17.5
2019-05-15T17:59:37.822Z,17.3
2019-05-15T18:04:38.679Z,17.2
2019-05-15T18:09:51.323Z,17.1
2019-05-15T18:14:47.759Z,17
2019-05-15T18:19:53.367Z,16.9
2019-05-15T18:24:59.206Z,16.8
2019-05-15T18:30:02.468Z,16.6
2019-05-15T18:35:02.780Z,16.5
2019-05-15T18:40:11.458Z,16.3
2019-05-15T18:45:24.361Z,16
2019-05-15T18:50:22.941Z,15.9
2019-05-15T18:55:26.270Z,15.7
2019-05-15T19:00:29.460Z,15.4
2019-05-15T19:05:28.295Z,15.2
2019-05-15T19:10:33.850Z,15
2019-05-15T19:16:03.666Z,14.7
2019-05-15T19:20:50.615Z,14.5
2019-05-15T19:26:02.593Z,14.3
2019-05-15T19:31:02.787Z,14.1
2019-05-15T19:36:02.834Z,13.8
2019-05-15T19:41:06.086Z,13.5
2019-05-15T19:46:02.869Z,13.3
2019-05-15T19:51:03.181Z,13
2019-05-15T19:56:24.970Z,12.7
2019-05-15T20:01:32.028Z,12.4
2019-05-15T20:06:44.013Z,12.1
2019-05-15T20:11:47.893Z,11.8
2019-05-15T20:16:48.687Z,11.6
2019-05-15T20:21:49.844Z,11.4
2019-05-15T20:26:49.848Z,11.2
2019-05-15T20:31:50.706Z,11
2019-05-15T20:42:25.700Z,10.5
2019-05-15T20:47:53.413Z,10.2
2019-05-15T20:53:53.496Z,10
2019-05-15T21:00:02.921Z,9.8
2019-05-15T21:05:02.861Z,9.6
2019-05-15T21:10:02.846Z,9.4
2019-05-15T21:15:14.489Z,9.3
2019-05-15T21:20:14.611Z,9.1
2019-05-15T21:25:15.626Z,8.9
2019-05-15T21:30:18.652Z,8.8
2019-05-15T21:35:17.953Z,8.6
2019-05-15T21:40:17.131Z,8.4
2019-05-15T21:45:18.430Z,8.2
2019-05-15T21:50:19.272Z,8.1
2019-05-15T21:55:18.946Z,7.9
2019-05-15T22:00:18.768Z,7.8
2019-05-15T22:05:19.215Z,7.7
2019-05-15T22:10:21.777Z,7.5
2019-05-15T22:15:21.793Z,7.3
2019-05-15T22:20:21.863Z,7.2
2019-05-15T22:25:21.992Z,7.1
2019-05-15T22:30:21.827Z,6.9
2019-05-15T22:35:33.606Z,6.8
2019-05-15T22:48:13.075Z,6.5
2019-05-15T22:53:13.501Z,6.4
2019-05-15T22:58:13.500Z,6.3
2019-05-15T23:03:13.441Z,6.2
2019-05-15T23:08:13.720Z,6.2
2019-05-15T23:13:14.591Z,6.1
2019-05-15T23:18:15.035Z,6
2019-05-15T23:23:15.481Z,5.9
2019-05-15T23:28:15.821Z,5.8
2019-05-15T23:33:15.734Z,5.7
2019-05-15T23:38:15.791Z,5.6
2019-05-15T23:43:15.792Z,5.5
2019-05-15T23:48:15.784Z,5.4
2019-05-15T23:53:17.208Z,5.4
2019-05-15T23:58:18.639Z,5.3
